Time;durP1;ratioP1;P1;durP2;ratioP2;P2;SDS_P1;SDS_P2;PMS_P1;PMS_P2;Temp;Humidity;BMP_temperature;BMP_pressure;BME280_temperature;BME280_humidity;BME280_pressure;Samples;Min_cycle;Max_cycle;Signal;HPM_P1;HPM_P2
2022/05/29 00:06:55;;;;;;;9.23;1.60;;;;;;;12.97;52.14;100240.00;20985207;28;20046;-72
2022/05/29 00:16:57;;;;;;;10.48;1.65;;;;;;;12.80;52.84;100235.22;20986640;28;20049;-72
2022/05/29 00:26:59;;;;;;;6.82;1.50;;;;;;;12.76;53.60;100233.59;20985480;28;20053;-73
2022/05/29 00:37:03;;;;;;;7.20;1.70;;;;;;;12.59;53.79;100227.00;20984754;28;20048;-72
2022/05/29 00:47:18;;;;;;;8.20;1.60;;;;;;;12.56;54.26;100219.22;20984576;28;20171;-70
2022/05/29 00:57:31;;;;;;;7.85;1.67;;;;;;;12.45;54.56;100205.50;20983896;28;20052;-73
2022/05/29 01:07:35;;;;;;;9.02;2.00;;;;;;;12.29;55.57;100202.41;20989180;28;20053;-73
2022/05/29 01:17:53;;;;;;;8.73;1.80;;;;;;;12.07;56.85;100190.75;20985283;28;20110;-73
2022/05/29 01:28:13;;;;;;;11.70;1.80;;;;;;;11.87;58.56;100182.50;20983039;28;20106;-73
2022/05/29 01:38:25;;;;;;;6.07;1.80;;;;;;;11.62;59.79;100171.72;20981652;28;20490;-73
2022/05/29 01:48:52;;;;;;;4.93;1.50;;;;;;;11.57;60.40;100172.69;20981970;28;20147;-72
2022/05/29 01:59:09;;;;;;;9.35;1.75;;;;;;;11.56;60.45;100168.34;20981924;28;20135;-72
2022/05/29 02:09:11;;;;;;;8.05;1.60;;;;;;;11.43;61.98;100156.41;20995093;28;20401;-72
2022/05/29 02:19:33;;;;;;;9.32;2.00;;;;;;;11.60;61.39;100160.41;20995582;28;20409;-71
2022/05/29 02:29:36;;;;;;;10.98;2.10;;;;;;;11.51;61.44;100164.97;20994665;28;20049;-72
2022/05/29 02:39:51;;;;;;;7.90;1.73;;;;;;;11.57;61.79;100154.31;20993066;28;20071;-72
2022/05/29 02:50:21;;;;;;;13.70;2.58;;;;;;;11.53;64.00;100136.09;20992670;28;20053;-71
2022/05/29 03:00:24;;;;;;;14.30;2.20;;;;;;;11.42;67.68;100117.13;20991131;28;20440;-73
2022/05/29 03:10:31;;;;;;;8.63;2.03;;;;;;;11.09;76.37;100108.28;20990646;28;20104;-73
2022/05/29 03:21:07;;;;;;;10.77;2.53;;;;;;;10.56;83.09;100121.63;20990016;28;20094;-73
2022/05/29 03:31:14;;;;;;;12.57;2.88;;;;;;;10.35;85.18;100141.25;20989811;28;20414;-72
2022/05/29 03:41:44;;;;;;;11.07;2.63;;;;;;;10.18;86.15;100132.78;20996317;28;20058;-72
2022/05/29 03:51:46;;;;;;;13.77;2.75;;;;;;;10.19;85.65;100130.16;20988506;28;20056;-72
2022/05/29 04:01:48;;;;;;;13.07;2.47;;;;;;;10.36;80.63;100122.03;20986333;28;20047;-72
2022/05/29 04:12:04;;;;;;;9.07;2.00;;;;;;;10.40;80.77;100122.84;20986637;28;20048;-72
2022/05/29 04:22:08;;;;;;;8.13;2.38;;;;;;;10.37;81.31;100118.50;20985418;28;20055;-73
2022/05/29 04:42:30;;;;;;;9.32;2.13;;;;;;;10.17;82.22;100126.72;20983344;28;20492;-71
2022/05/29 04:52:31;;;;;;;7.30;2.05;;;;;;;10.39;80.75;100142.88;20983740;28;20052;-73
2022/05/29 05:02:33;;;;;;;11.77;2.42;;;;;;;10.45;79.53;100142.78;20980842;28;20040;-73
2022/05/29 05:12:35;;;;;;;8.20;2.40;;;;;;;10.84;75.93;100140.25;20983643;28;20076;-73
2022/05/29 05:22:36;;;;;;;9.45;2.15;;;;;;;11.18;72.10;100139.53;20983234;28;20048;-73
2022/05/29 05:32:37;;;;;;;13.25;2.20;;;;;;;11.14;72.84;100149.22;20981985;28;20052;-73
2022/05/29 05:42:39;;;;;;;8.90;2.30;;;;;;;11.22;72.65;100126.31;20998658;28;20057;-73
2022/05/29 05:52:41;;;;;;;11.15;2.08;;;;;;;11.31;73.09;100138.38;20996361;28;20048;-73
2022/05/29 06:02:43;;;;;;;17.17;2.75;;;;;;;11.41;73.58;100150.34;20996290;28;20048;-73
2022/05/29 06:12:45;;;;;;;12.93;2.42;;;;;;;11.70;73.99;100143.56;20997471;28;20052;-73
2022/05/29 06:22:46;;;;;;;7.97;2.20;;;;;;;12.08;72.06;100155.75;20996419;28;20143;-72
2022/05/29 06:32:48;;;;;;;10.48;2.72;;;;;;;11.99;72.95;100156.84;20993989;28;20052;-75
2022/05/29 06:42:50;;;;;;;9.20;2.17;;;;;;;11.68;76.14;100166.31;20994069;28;20542;-70
2022/05/29 06:52:51;;;;;;;9.30;2.38;;;;;;;11.66;74.74;100160.25;20991176;28;20060;-70
2022/05/29 07:13:13;;;;;;;8.60;1.98;;;;;;;11.34;76.73;100185.44;20944401;28;20415;-69
2022/05/29 07:23:17;;;;;;;8.43;1.92;;;;;;;11.34;77.39;100182.84;20949237;28;20083;-70
2022/05/29 07:33:19;;;;;;;8.87;2.23;;;;;;;11.78;76.75;100181.78;20916193;28;20055;-69
2022/05/29 07:43:22;;;;;;;6.63;2.28;;;;;;;11.66;78.65;100192.59;20942552;28;20044;-70
2022/05/29 07:53:23;;;;;;;8.15;2.28;;;;;;;11.30;82.20;100203.00;20939501;28;20144;-70
2022/05/29 08:03:25;;;;;;;9.68;2.50;;;;;;;11.04;82.23;100214.03;20978904;28;20045;-70
2022/05/29 08:13:28;;;;;;;9.40;2.30;;;;;;;11.35;79.80;100202.91;20948227;28;20052;-71
2022/05/29 08:23:29;;;;;;;6.97;1.90;;;;;;;11.01;79.32;100216.72;20895095;28;20414;-71
2022/05/29 08:33:34;;;;;;;16.30;4.03;;;;;;;10.02;99.45;100229.00;20894762;28;20052;-72
2022/05/29 08:43:35;;;;;;;10.93;3.63;;;;;;;10.14;100.00;100230.53;20895644;28;20059;-83
2022/05/29 08:54:09;;;;;;;12.80;3.60;;;;;;;10.45;100.00;100220.44;20899835;28;20057;-75
2022/05/29 09:04:23;;;;;;;13.15;3.03;;;;;;;11.20;100.00;100206.72;20894474;28;20131;-77
2022/05/29 09:14:39;;;;;;;14.45;3.97;;;;;;;11.62;95.22;100197.94;20942106;28;20052;-75
2022/05/29 09:24:57;;;;;;;12.40;3.08;;;;;;;12.53;91.52;100189.56;20990870;28;20553;-74
2022/05/29 09:35:14;;;;;;;12.27;3.85;;;;;;;14.18;81.55;100178.41;20990163;28;20067;-72
2022/05/29 09:45:32;;;;;;;8.93;2.40;;;;;;;13.93;70.36;100167.84;20990324;28;20048;-72
2022/05/29 09:55:36;;;;;;;7.90;2.72;;;;;;;14.48;78.36;100166.00;20989931;28;20409;-74
2022/05/29 10:05:42;;;;;;;9.93;2.58;;;;;;;15.12;72.15;100148.66;20972100;28;20146;-75
2022/05/29 10:15:43;;;;;;;7.28;2.22;;;;;;;15.87;63.51;100129.84;20953839;28;20055;-74
2022/05/29 10:25:59;;;;;;;7.35;1.75;;;;;;;16.91;56.35;100127.06;20985416;28;20049;-75
2022/05/29 10:36:09;;;;;;;4.72;1.70;;;;;;;16.24;58.18;100119.47;20986337;28;20098;-75
2022/05/29 10:46:11;;;;;;;7.78;1.90;;;;;;;16.60;53.94;100107.28;20985151;28;20455;-75
2022/05/29 10:56:41;;;;;;;7.63;1.85;;;;;;;17.03;51.15;100110.63;20984725;28;20075;-74
2022/05/29 11:07:19;;;;;;;6.75;1.95;;;;;;;16.08;47.81;100092.88;20971192;28;20056;-75
2022/05/29 11:17:46;;;;;;;8.05;2.25;;;;;;;16.04;55.77;100096.56;20917724;28;20452;-76
2022/05/29 11:28:07;;;;;;;16.25;2.78;;;;;;;14.32;85.77;100102.41;20900830;28;20056;-73
2022/05/29 11:38:23;;;;;;;9.20;2.25;;;;;;;14.25;62.98;100079.84;20903440;28;20060;-77
2022/05/29 11:59:05;;;;;;;7.57;2.33;;;;;;;15.93;68.92;100048.66;20958927;28;20056;-78
2022/05/29 12:09:21;;;;;;;7.25;2.55;;;;;;;15.76;60.80;100049.38;20975411;28;20051;-75
2022/05/29 12:19:31;;;;;;;7.55;2.25;;;;;;;14.18;60.30;100046.75;20976229;28;20044;-73
2022/05/29 12:29:44;;;;;;;5.97;1.60;;;;;;;14.04;72.45;100040.22;20973478;28;20071;-74
2022/05/29 12:40:07;;;;;;;5.95;1.60;;;;;;;14.22;69.21;100027.28;20976417;28;20045;-72
2022/05/29 12:50:21;;;;;;;4.93;1.60;;;;;;;15.36;62.64;100008.78;20975569;28;20048;-71
2022/05/29 13:00:26;;;;;;;6.78;1.92;;;;;;;15.65;50.88;100000.53;20975585;28;20080;-71
2022/05/29 13:10:36;;;;;;;4.80;1.67;;;;;;;16.35;49.94;99996.56;20970173;28;20106;-71
2022/05/29 13:21:16;;;;;;;8.00;1.40;;;;;;;15.99;49.56;99985.84;20892688;28;20087;-71
2022/05/29 13:31:20;;;;;;;9.43;3.13;;;;;;;16.21;49.83;99984.91;20892139;28;20052;-69
2022/05/29 13:41:45;;;;;;;6.67;1.60;;;;;;;16.41;49.53;99987.47;20891694;28;20052;-68
2022/05/29 13:51:50;;;;;;;6.07;2.00;;;;;;;16.67;51.51;99965.97;20891090;28;20413;-68
2022/05/29 14:12:19;;;;;;;6.80;1.83;;;;;;;16.76;47.94;99953.25;20925675;28;20509;-69
2022/05/29 14:22:55;;;;;;;7.40;1.50;;;;;;;17.64;42.12;99945.31;20989617;28;20053;-69
2022/05/29 14:33:19;;;;;;;4.82;1.60;;;;;;;16.79;43.42;99931.97;20986159;28;20120;-70
2022/05/29 14:43:27;;;;;;;7.50;1.20;;;;;;;17.46;42.40;99922.44;20986409;28;20080;-71
2022/05/29 14:53:35;;;;;;;4.78;1.35;;;;;;;17.28;39.34;99908.38;20984984;28;20135;-70
2022/05/29 15:03:41;;;;;;;5.70;1.55;;;;;;;16.56;39.78;99915.41;20983640;28;20090;-71
2022/05/29 15:13:57;;;;;;;3.47;1.20;;;;;;;16.24;38.41;99908.13;20950361;28;20053;-70
2022/05/29 15:24:14;;;;;;;4.75;1.00;;;;;;;17.73;38.41;99893.69;20899789;28;20052;-71
2022/05/29 15:34:31;;;;;;;2.65;1.17;;;;;;;18.13;36.91;99881.81;20898697;28;20059;-71
2022/05/29 15:44:52;;;;;;;4.97;1.20;;;;;;;17.45;35.08;99873.94;20898204;28;20045;-71
2022/05/29 15:55:18;;;;;;;4.28;1.25;;;;;;;17.23;34.59;99873.34;20897732;28;20056;-71
2022/05/29 16:05:40;;;;;;;4.30;1.50;;;;;;;16.75;36.17;99877.53;20896531;28;20052;-71
2022/05/29 16:15:56;;;;;;;3.65;1.15;;;;;;;17.41;39.17;99870.59;20943125;28;20547;-71
2022/05/29 16:26:00;;;;;;;3.75;1.10;;;;;;;17.86;35.72;99860.31;20978065;28;20090;-71
2022/05/29 16:36:06;;;;;;;3.40;1.40;;;;;;;18.31;35.60;99853.44;20976755;28;20097;-70
2022/05/29 16:56:58;;;;;;;3.80;1.30;;;;;;;17.38;30.84;99838.16;20978669;28;20135;-70
2022/05/29 17:07:10;;;;;;;4.07;1.15;;;;;;;17.68;36.59;99844.47;20971572;28;20051;-71
2022/05/29 17:17:13;;;;;;;7.00;1.70;;;;;;;18.08;35.26;99846.75;20972661;28;20131;-71
2022/05/29 17:27:29;;;;;;;4.22;1.27;;;;;;;17.13;37.48;99846.50;20975426;28;20071;-70
2022/05/29 17:38:06;;;;;;;4.43;1.25;;;;;;;16.54;37.03;99848.56;20986642;28;20388;-70
2022/05/29 17:48:37;;;;;;;6.75;1.50;;;;;;;16.56;40.04;99838.75;20990218;28;20056;-71
2022/05/29 17:58:39;;;;;;;5.03;1.70;;;;;;;16.44;41.82;99842.03;20988408;28;20489;-71
2022/05/29 18:08:43;;;;;;;3.28;1.15;;;;;;;16.71;41.80;99833.63;20956954;28;20041;-71
2022/05/29 18:18:45;;;;;;;4.40;1.00;;;;;;;16.61;40.28;99823.53;20981446;28;20040;-71
2022/05/29 18:28:47;;;;;;;4.22;1.60;;;;;;;16.49;43.37;99828.59;20986506;28;20404;-71
2022/05/29 18:38:48;;;;;;;3.15;1.20;;;;;;;15.82;45.13;99837.94;20984948;28;20463;-71
2022/05/29 18:48:50;;;;;;;5.38;1.20;;;;;;;14.99;48.72;99846.84;20983844;28;20516;-71
2022/05/29 18:58:52;;;;;;;4.53;1.70;;;;;;;14.63;52.22;99834.28;20984071;28;20063;-71
2022/05/29 19:08:56;;;;;;;5.82;1.45;;;;;;;14.36;54.21;99845.91;20982807;28;20047;-70
2022/05/29 19:18:59;;;;;;;7.35;2.00;;;;;;;13.84;61.35;99843.53;20905769;28;20052;-70
2022/05/29 19:29:03;;;;;;;5.55;2.03;;;;;;;13.49;64.07;99858.00;20898397;28;20099;-70
2022/05/29 19:39:08;;;;;;;6.77;2.00;;;;;;;12.67;66.34;99881.84;20896513;28;20060;-70
2022/05/29 19:49:10;;;;;;;;;;;;;;;12.73;60.62;99902.66;20897455;28;20668;-70
2022/05/29 19:59:14;;;;;;;4.88;1.90;;;;;;;12.86;60.73;99905.75;20895236;28;19920;-70
2022/05/29 20:09:16;;;;;;;3.70;1.70;;;;;;;13.12;60.73;99910.13;20893752;28;20098;-70
2022/05/29 20:19:18;;;;;;;3.78;1.92;;;;;;;12.83;63.73;99920.69;20972230;28;20598;-70
2022/05/29 20:29:20;;;;;;;3.97;2.10;;;;;;;12.63;65.32;99917.00;20976691;28;20413;-71
2022/05/29 20:39:23;;;;;;;4.38;2.17;;;;;;;12.44;66.81;99928.09;20976346;28;20044;-71
2022/05/29 20:49:24;;;;;;;5.43;2.30;;;;;;;12.19;69.42;99922.72;20976230;28;20103;-72
2022/05/29 20:59:26;;;;;;;4.03;2.25;;;;;;;11.81;72.03;99926.44;20976148;28;20105;-71
2022/05/29 21:09:28;;;;;;;4.40;2.10;;;;;;;11.61;74.33;99939.25;20983883;28;20044;-72
2022/05/29 21:19:29;;;;;;;4.00;2.30;;;;;;;11.45;76.69;99929.19;20911962;28;20119;-71
2022/05/29 21:29:31;;;;;;;5.22;2.28;;;;;;;11.32;78.10;99933.03;20908580;28;20517;-72
2022/05/29 21:39:34;;;;;;;5.55;2.80;;;;;;;10.92;80.23;99934.03;20905858;28;20048;-72
2022/05/29 21:49:36;;;;;;;6.65;2.72;;;;;;;10.91;80.98;99937.53;20915816;28;20052;-72
2022/05/29 21:59:37;;;;;;;6.57;2.80;;;;;;;10.84;82.20;99935.97;20974560;22;20045;-66
2022/05/29 22:09:39;;;;;;;7.15;2.72;;;;;;;10.67;84.06;99932.88;20910765;28;20049;-65
2022/05/29 22:19:41;;;;;;;5.40;2.60;;;;;;;10.58;84.99;99936.56;20911918;28;20048;-66
2022/05/29 22:29:42;;;;;;;4.82;2.50;;;;;;;10.33;87.37;99933.66;20911284;28;20045;-67
2022/05/29 22:39:47;;;;;;;5.15;2.65;;;;;;;10.28;87.72;99932.91;20909848;28;20049;-66
2022/05/29 22:49:59;;;;;;;4.53;2.35;;;;;;;10.06;89.69;99936.81;20902046;28;20045;-66
2022/05/29 23:00:01;;;;;;;5.22;2.70;;;;;;;10.13;89.34;99935.81;20828448;28;20478;-66
2022/05/29 23:10:04;;;;;;;4.55;2.47;;;;;;;9.86;91.41;99922.41;20825309;28;20557;-66
2022/05/29 23:20:06;;;;;;;4.18;2.70;;;;;;;9.71;91.71;99912.28;20821474;28;20049;-65
2022/05/29 23:30:11;;;;;;;5.38;2.70;;;;;;;9.61;93.21;99905.50;20822503;28;20049;-67
2022/05/29 23:40:16;;;;;;;5.50;2.58;;;;;;;9.51;93.93;99902.22;20823300;28;20057;-66
2022/05/29 23:50:17;;;;;;;5.47;2.70;;;;;;;9.46;95.08;99906.66;20821978;28;20130;-66
